Date,TemperatureHighF,TemperatureAvgF,TemperatureLowF,DewpointHighF,DewpointAvgF,DewpointLowF,HumidityHigh,HumidityAvg,HumidityLow,PressureMaxIn,PressureMinIn,WindSpeedMaxMPH,WindSpeedAvgMPH,GustSpeedMaxMPH,PrecipitationSumIn
2013-3-1,47,39,34,34,28,22,93,67,41,29.76,29.62,15,2,15,0.00
2013-3-2,39,34,32,24,22,21,65,60,50,29.79,29.71,12,3,12,0.00
2013-3-3,42,33,29,22,19,16,63,57,42,29.74,29.65,18,5,18,0.00
2013-3-4,32,32,32,21,21,21,63,63,63,29.71,29.71,5,5,6,0.00
2013-3-5,32,32,32,21,21,21,63,63,63,29.71,29.71,5,5,6,0.00
2013-3-6,37,33,32,29,23,21,74,65,63,30.09,29.71,22,6,22,0.00
2013-3-7,39,35,33,33,28,23,96,78,56,30.09,30.03,21,8,21,0.00
2013-3-8,40,36,32,32,28,20,98,76,49,30.21,30.00,18,4,18,0.21
2013-3-9,60,42,31,27,20,14,60,43,28,30.36,30.18,16,4,16,0.04
2013-3-10,57,39,27,32,24,15,74,56,37,30.41,30.30,18,3,19,0.00
2013-3-11,55,44,37,40,35,28,84,69,48,30.33,30.15,22,4,22,0.00
2013-3-12,54,50,42,54,47,36,98,90,79,30.15,29.74,24,4,24,1.08
2013-3-13,50,41,37,36,25,19,80,55,35,29.88,29.79,16,3,16,0.00
2013-3-14,38,31,29,23,14,10,61,49,41,29.91,29.85,22,4,22,0.00
2013-3-15,40,32,30,25,15,9,67,49,42,29.91,29.74,16,8,21,0.00
2013-3-16,42,35,29,23,15,11,60,43,36,29.91,29.79,16,4,16,0.00
2013-3-17,42,32,25,14,10,5,47,38,30,30.33,29.91,28,5,28,0.00
2013-3-18,41,30,20,26,9,1,86,42,30,30.47,30.18,33,4,33,0.00
2013-3-19,37,33,30,34,29,24,92,86,80,30.18,29.71,13,4,13,0.04
2013-3-20,46,34,26,29,18,12,86,55,37,29.88,29.79,31,4,31,0.17
2013-3-21,41,32,25,20,16,10,72,52,36,29.88,29.65,17,3,17,0.08
2013-3-22,45,33,21,21,14,6,55,44,38,29.79,29.71,26,5,26,0.00
2013-3-23,45,37,35,20,16,14,45,42,36,29.91,29.79,36,6,36,0.00
2013-3-24,51,39,29,26,19,14,57,45,37,29.94,29.76,21,5,21,0.00
2013-3-25,47,39,32,25,21,17,60,49,39,29.79,29.53,24,6,24,0.00
2013-3-26,52,42,35,27,22,14,59,46,34,29.85,29.62,19,4,19,0.00
2013-3-27,60,42,27,29,21,13,66,44,28,29.94,29.82,29,4,29,0.00
2013-3-28,59,44,36,31,26,21,67,50,35,30.09,29.94,18,3,18,0.00
2013-3-29,58,47,33,32,27,22,71,47,34,30.12,30.03,22,4,24,0.00
2013-3-30,63,48,34,30,23,15,64,40,25,30.18,30.06,26,3,26,0.00
2013-3-31,59,45,29,37,25,15,76,47,30,30.15,29.74,29,4,29,0.12